createdAt,value
2022-07-25T00:00:16.356Z,67
2022-07-25T00:15:12.111Z,67
2022-07-25T00:30:12.529Z,68
2022-07-25T00:45:10.486Z,68
2022-07-25T01:00:13.858Z,68
2022-07-25T01:15:11.406Z,68
2022-07-25T01:30:11.649Z,68
2022-07-25T01:45:10.354Z,68
2022-07-25T02:00:14.124Z,68
2022-07-25T02:15:10.620Z,68
2022-07-25T02:30:13.271Z,68
2022-07-25T02:45:10.514Z,68
2022-07-25T03:00:12.976Z,68
2022-07-25T03:15:10.087Z,68
2022-07-25T03:30:12.885Z,68
2022-07-25T03:45:11.373Z,68
2022-07-25T04:00:13.985Z,69
2022-07-25T04:15:11.249Z,69
2022-07-25T04:30:24.970Z,69
2022-07-25T04:45:11.376Z,69
2022-07-25T05:00:16.214Z,69
2022-07-25T05:15:11.809Z,69
2022-07-25T05:30:13.415Z,70
2022-07-25T05:45:12.866Z,70
2022-07-25T06:00:14.526Z,71
2022-07-25T06:15:26.494Z,71
2022-07-25T06:30:20.677Z,71
2022-07-25T06:45:12.328Z,71
2022-07-25T07:00:16.819Z,71
2022-07-25T07:15:11.990Z,71
2022-07-25T07:30:14.204Z,71
2022-07-25T07:45:11.933Z,71
2022-07-25T08:00:17.019Z,71
2022-07-25T08:15:11.060Z,70
2022-07-25T08:30:14.769Z,70
2022-07-25T08:45:11.967Z,69
2022-07-25T09:00:16.328Z,69
2022-07-25T09:15:12.675Z,69
2022-07-25T09:30:13.549Z,68
2022-07-25T09:45:13.901Z,68
2022-07-25T10:00:19.727Z,68
2022-07-25T10:15:10.690Z,68
2022-07-25T10:30:12.840Z,67
2022-07-25T10:45:11.469Z,67
2022-07-25T11:00:13.835Z,66
2022-07-25T11:15:17.375Z,66
2022-07-25T11:30:12.834Z,65
2022-07-25T11:45:13.604Z,64
2022-07-25T12:00:13.542Z,64
2022-07-25T12:15:12.284Z,64
2022-07-25T12:30:13.241Z,63
2022-07-25T12:45:12.895Z,63
2022-07-25T13:00:15.340Z,63
2022-07-25T13:15:15.305Z,62
2022-07-25T13:30:15.636Z,62
2022-07-25T13:45:11.569Z,62
2022-07-25T14:00:14.674Z,61
2022-07-25T14:15:12.703Z,61
2022-07-25T14:30:13.496Z,61
2022-07-25T14:45:12.258Z,61
2022-07-25T15:00:15.763Z,60
2022-07-25T15:15:12.959Z,60
2022-07-25T15:30:15.060Z,60
2022-07-25T15:45:33.541Z,60
2022-07-25T16:00:13.674Z,59
2022-07-25T16:15:13.191Z,59
2022-07-25T16:30:14.095Z,58
2022-07-25T16:45:12.607Z,58
2022-07-25T17:00:14.511Z,58
2022-07-25T17:15:12.344Z,58
2022-07-25T17:30:15.800Z,58
2022-07-25T17:45:12.992Z,58
2022-07-25T18:00:16.617Z,58
2022-07-25T18:15:13.040Z,58
2022-07-25T18:30:14.368Z,58
2022-07-25T18:45:14.656Z,58
2022-07-25T19:00:18.088Z,59
2022-07-25T19:15:12.635Z,59
2022-07-25T19:30:17.775Z,59
2022-07-25T19:45:21.013Z,60
2022-07-25T20:00:36.251Z,60
2022-07-25T20:15:21.097Z,61
2022-07-25T20:30:35.327Z,63
2022-07-25T20:45:11.878Z,64
2022-07-25T21:00:15.247Z,66
2022-07-25T21:15:11.330Z,67
2022-07-25T21:30:11.395Z,68
2022-07-25T21:45:11.180Z,68
2022-07-25T22:00:13.465Z,69
2022-07-25T22:15:12.679Z,69
2022-07-25T22:30:19.675Z,70
2022-07-25T22:45:12.714Z,70
2022-07-25T23:00:12.109Z,71
2022-07-25T23:15:10.804Z,71
2022-07-25T23:30:12.721Z,71
2022-07-25T23:45:12.031Z,72
